Terminal Aerodrome Forecast
Issued by NWS Goodland, KS

Home | Current Version | Previous Version | Text Only | Print | Product List | Glossary On
Versions: 1 2 3 4 5 6 7 8 9 10 11 12 13 14 15 16 17 18 19 20
143
FTUS43 KGLD 142335
TAFGLD
TAF
KGLD 142335Z 1500/1524 20012KT P6SM BKN200
     FM150400 25012KT P6SM BKN200
     FM151400 31010KT P6SM SCT250
     FM151800 34010KT P6SM SCT200
     FM152100 36016G25KT P6SM BKN130=

USA.gov is the U.S. government's official web portal to all federal, state and local government web resources and services.